createdAt,value
2022-09-06T00:00:58.140Z,95944.31
2022-09-06T00:03:25.025Z,95934.75
2022-09-06T00:05:51.649Z,95939.69
2022-09-06T00:08:18.269Z,95931.34
2022-09-06T00:10:44.813Z,95933.72
2022-09-06T00:13:11.816Z,95934.06
2022-09-06T00:15:38.458Z,95933.81
2022-09-06T00:18:06.795Z,95941.28
2022-09-06T00:20:34.642Z,95936.34
2022-09-06T00:23:04.336Z,95940.53
2022-09-06T00:25:31.991Z,95936.25
2022-09-06T00:28:01.458Z,95937.72
2022-09-06T00:30:29.686Z,95941.19
2022-09-06T00:32:56.991Z,95934.94
2022-09-06T00:35:24.959Z,95941.69
2022-09-06T00:37:52.406Z,95936.69
2022-09-06T00:40:19.042Z,95937.59
2022-09-06T00:42:45.624Z,95942.06
2022-09-06T00:45:12.794Z,95948.56
2022-09-06T00:47:41.546Z,95950.22
2022-09-06T00:50:11.049Z,95944.78
2022-09-06T00:52:38.639Z,95940.31
2022-09-06T00:55:06.277Z,95938.41
2022-09-06T00:57:33.114Z,95941.53
2022-09-06T01:00:00.589Z,95940.31
2022-09-06T01:02:27.311Z,95940.84
2022-09-06T01:04:55.375Z,95936.22
2022-09-06T01:07:44.927Z,95939.69
2022-09-06T01:10:20.479Z,95941.06
2022-09-06T01:13:11.553Z,95946.97
2022-09-06T01:16:13.660Z,95941.31
2022-09-06T01:18:49.243Z,95947.06
2022-09-06T01:21:18.590Z,95938.47
2022-09-06T01:24:19.028Z,95947.25
2022-09-06T01:27:10.489Z,95944.66
2022-09-06T01:29:56.282Z,95947.31
2022-09-06T01:32:34.890Z,95947.22
2022-09-06T01:35:36.148Z,95946.06
2022-09-06T01:38:03.926Z,95956.63
2022-09-06T01:40:30.799Z,95953.69
2022-09-06T01:42:58.287Z,95954.44
2022-09-06T01:45:42.569Z,95971.97
2022-09-06T01:48:17.755Z,95958.34
2022-09-06T01:50:56.969Z,95966.91
2022-09-06T01:53:36.356Z,95966.91
2022-09-06T01:56:43.508Z,95966.19
2022-09-06T01:59:40.636Z,95974.53
2022-09-06T02:02:26.718Z,95959.50
2022-09-06T02:05:01.430Z,95966.06
2022-09-06T02:07:30.986Z,95962.13
2022-09-06T02:10:06.613Z,95967.56
2022-09-06T02:12:35.577Z,95960.88
2022-09-06T02:15:07.401Z,95956.63
2022-09-06T02:17:39.057Z,95966.59
2022-09-06T02:20:11.357Z,95963.00
2022-09-06T02:22:42.579Z,95958.31
2022-09-06T02:25:15.143Z,95957.88
2022-09-06T02:27:41.837Z,95960.50
2022-09-06T02:30:09.014Z,95962.03
2022-09-06T02:32:40.275Z,95958.53
2022-09-06T02:35:14.738Z,95959.38
2022-09-06T02:37:42.915Z,95960.78
2022-09-06T02:40:10.545Z,95956.13
2022-09-06T02:42:37.526Z,95958.63
2022-09-06T02:45:05.333Z,95958.78
2022-09-06T02:47:31.946Z,95962.06
2022-09-06T02:49:58.573Z,95942.56
2022-09-06T02:52:25.221Z,95933.81
2022-09-06T02:54:52.321Z,95935.81
2022-09-06T02:57:18.995Z,95924.59
2022-09-06T02:59:46.336Z,95927.72
2022-09-06T03:02:12.987Z,95919.47
2022-09-06T03:04:39.677Z,95926.91
2022-09-06T03:07:06.253Z,95925.25
2022-09-06T03:09:32.853Z,95953.34
2022-09-06T03:11:59.516Z,95965.63
2022-09-06T03:14:26.155Z,95961.13
2022-09-06T03:16:52.819Z,95966.91
2022-09-06T03:19:20.188Z,95964.88
2022-09-06T03:21:46.891Z,95967.78
2022-09-06T03:24:13.607Z,95970.09
2022-09-06T03:26:40.191Z,95968.19
2022-09-06T03:29:06.840Z,95968.19
2022-09-06T03:31:33.441Z,95972.41
2022-09-06T03:34:00.155Z,95978.53
2022-09-06T03:36:26.781Z,95981.94
2022-09-06T03:38:54.146Z,95988.56
2022-09-06T03:41:20.752Z,95991.22
2022-09-06T03:43:47.382Z,95997.88
2022-09-06T03:46:14.106Z,96003.59
2022-09-06T03:48:40.987Z,96003.22
2022-09-06T03:51:07.674Z,96007.06
2022-09-06T03:53:34.321Z,96006.44
2022-09-06T03:56:01.472Z,96017.00
2022-09-06T03:58:33.105Z,96006.63
2022-09-06T04:01:11.785Z,96000.53
2022-09-06T04:03:39.523Z,96007.50
2022-09-06T04:06:07.065Z,96013.66
2022-09-06T04:08:35.913Z,96007.50
2022-09-06T04:11:03.109Z,96002.13
2022-09-06T04:13:30.402Z,95994.28
2022-09-06T04:15:57.800Z,95996.31
2022-09-06T04:18:24.545Z,95995.88
2022-09-06T04:20:52.982Z,95994.59
2022-09-06T04:23:20.333Z,95996.06
2022-09-06T04:25:48.354Z,95996.31
2022-09-06T04:28:15.957Z,95993.91
2022-09-06T04:30:42.627Z,95999.78
2022-09-06T04:33:09.300Z,95999.56
2022-09-06T04:35:36.122Z,95987.19
2022-09-06T04:38:03.792Z,95982.03
2022-09-06T04:40:30.445Z,95973.84
2022-09-06T04:42:57.022Z,95972.41
2022-09-06T04:45:24.890Z,95979.81
2022-09-06T04:47:51.610Z,95986.09
2022-09-06T04:50:18.256Z,95975.34
2022-09-06T04:52:48.056Z,95978.44
2022-09-06T04:55:14.958Z,95982.00
2022-09-06T04:57:45.162Z,95988.25
2022-09-06T05:00:14.614Z,95981.50
2022-09-06T05:02:41.246Z,95981.91
2022-09-06T05:05:08.385Z,95974.41
2022-09-06T05:07:35.078Z,95975.28
2022-09-06T05:10:01.858Z,95969.75
2022-09-06T05:12:28.628Z,95972.53
2022-09-06T05:14:55.371Z,95977.69
2022-09-06T05:17:22.002Z,95977.66
2022-09-06T05:19:48.664Z,95981.63
2022-09-06T05:22:15.354Z,95978.94
2022-09-06T05:24:41.966Z,95981.56
2022-09-06T05:27:08.912Z,95983.22
2022-09-06T05:29:35.514Z,95989.34
2022-09-06T05:32:02.463Z,95985.94
2022-09-06T05:34:29.285Z,95988.06
2022-09-06T05:36:55.889Z,96000.19
2022-09-06T05:39:23.082Z,95996.69
2022-09-06T05:41:49.786Z,96001.31
2022-09-06T05:44:16.411Z,96002.78
2022-09-06T05:46:46.652Z,96000.25
2022-09-06T05:49:13.822Z,96003.81
2022-09-06T05:51:40.848Z,96007.81
2022-09-06T05:54:07.983Z,96001.78
2022-09-06T05:56:34.758Z,96001.56
2022-09-06T05:59:01.462Z,96003.16
2022-09-06T06:01:30.200Z,96001.09
2022-09-06T06:03:57.847Z,95997.44
2022-09-06T06:06:26.198Z,96001.66
2022-09-06T06:08:53.180Z,95998.38
2022-09-06T06:11:20.158Z,96001.59
2022-09-06T06:13:46.813Z,95998.19
2022-09-06T06:16:18.171Z,96003.94
2022-09-06T06:18:48.793Z,95998.75
2022-09-06T06:21:20.571Z,96013.38
2022-09-06T06:23:53.562Z,96011.13
2022-09-06T06:26:20.583Z,96010.84
2022-09-06T06:28:47.223Z,96009.63
2022-09-06T06:31:14.626Z,96008.13
2022-09-06T06:33:41.878Z,96002.66
2022-09-06T06:36:23.550Z,95999.13
2022-09-06T06:38:52.764Z,96010.81
2022-09-06T06:41:21.388Z,96004.47
2022-09-06T06:43:48.089Z,96004.47
2022-09-06T06:46:17.320Z,96013.19
2022-09-06T06:48:45.547Z,96013.53
2022-09-06T06:51:14.690Z,96012.34
2022-09-06T06:53:41.504Z,96009.00
2022-09-06T06:56:15.539Z,96001.69
2022-09-06T06:58:42.688Z,96006.34
2022-09-06T07:01:10.189Z,95997.06
2022-09-06T07:03:37.049Z,96005.41
2022-09-06T07:06:12.939Z,95996.50
2022-09-06T07:08:40.640Z,95998.19
2022-09-06T07:11:09.922Z,95997.00
2022-09-06T07:13:37.317Z,95998.38
2022-09-06T07:16:15.280Z,96002.72
2022-09-06T07:18:43.270Z,96001.31
2022-09-06T07:26:31.863Z,96013.66
2022-09-06T07:29:01.798Z,96015.38
2022-09-06T07:34:17.772Z,96005.56
2022-09-06T07:36:44.409Z,96010.22
2022-09-06T07:39:11.084Z,96010.25
2022-09-06T07:41:37.723Z,96012.34
2022-09-06T07:44:04.342Z,96004.81
2022-09-06T07:46:31.017Z,96006.19
2022-09-06T07:48:57.744Z,95999.00
2022-09-06T07:51:24.343Z,96000.00
2022-09-06T07:54:06.965Z,95997.00
2022-09-06T07:56:40.566Z,96004.28
2022-09-06T07:59:07.214Z,96004.78
2022-09-06T08:01:35.351Z,95999.94
2022-09-06T08:04:06.187Z,96003.13
2022-09-06T08:09:22.506Z,96006.13
2022-09-06T08:11:51.068Z,96006.63
2022-09-06T08:14:17.686Z,96011.94
2022-09-06T08:16:44.389Z,96007.22
2022-09-06T08:19:12.462Z,96010.59
2022-09-06T08:21:39.243Z,96007.69
2022-09-06T08:24:08.047Z,96006.59
2022-09-06T08:26:39.856Z,95992.56
2022-09-06T08:29:08.756Z,95987.38
2022-09-06T08:31:38.489Z,95990.03
2022-09-06T08:34:05.931Z,95992.34
2022-09-06T08:36:33.038Z,95994.75
2022-09-06T08:39:01.633Z,96001.00
2022-09-06T08:41:37.880Z,95996.09
2022-09-06T08:47:04.484Z,96002.22
2022-09-06T08:49:39.153Z,96000.53
2022-09-06T08:52:24.342Z,96000.78
2022-09-06T08:54:56.456Z,96005.38
2022-09-06T08:57:49.655Z,95999.88
2022-09-06T09:00:17.264Z,96003.06
2022-09-06T09:02:52.861Z,96008.56
2022-09-06T09:05:25.687Z,96003.44
2022-09-06T09:08:00.548Z,96003.97
2022-09-06T09:10:39.579Z,96001.56
2022-09-06T09:13:08.333Z,95997.84
2022-09-06T09:15:40.176Z,95988.69
2022-09-06T09:18:07.569Z,96001.56
2022-09-06T09:20:34.217Z,96008.22
2022-09-06T09:23:02.390Z,96011.06
2022-09-06T09:25:33.387Z,96017.50
2022-09-06T09:28:00.373Z,96024.78
2022-09-06T09:30:47.599Z,96022.38
2022-09-06T09:33:24.408Z,96018.34
2022-09-06T09:35:51.797Z,96027.06
2022-09-06T09:38:30.936Z,96027.06
2022-09-06T09:41:00.109Z,96017.72
2022-09-06T09:43:52.879Z,96015.78
2022-09-06T09:46:22.530Z,96023.28
2022-09-06T09:49:20.121Z,96018.97
2022-09-06T09:52:05.016Z,96020.47
2022-09-06T09:54:35.417Z,96017.84
2022-09-06T09:57:04.453Z,96016.56
2022-09-06T09:59:36.891Z,96019.75
2022-09-06T10:02:35.779Z,96011.00
2022-09-06T10:05:06.840Z,96010.19
2022-09-06T10:07:34.308Z,96006.34
2022-09-06T10:10:34.333Z,96003.34
2022-09-06T10:13:21.768Z,95997.53
2022-09-06T10:15:51.895Z,95999.69
2022-09-06T10:18:30.156Z,95990.97
2022-09-06T10:21:23.822Z,95985.66
2022-09-06T10:26:58.718Z,95985.72
2022-09-06T10:30:01.477Z,95990.16
2022-09-06T10:32:58.719Z,95984.47
2022-09-06T10:35:30.846Z,95982.53
2022-09-06T10:38:33.295Z,95975.22
2022-09-06T10:41:21.075Z,95973.13
2022-09-06T10:43:54.496Z,95959.69
2022-09-06T10:46:26.405Z,95961.94
2022-09-06T10:48:56.216Z,95959.22
2022-09-06T10:51:45.778Z,95950.56
2022-09-06T10:54:21.979Z,95946.94
2022-09-06T10:56:57.170Z,95948.06
2022-09-06T10:59:39.264Z,95940.75
2022-09-06T11:02:29.170Z,95932.41
2022-09-06T11:10:51.196Z,95929.16
2022-09-06T11:13:27.738Z,95919.91
2022-09-06T11:15:55.296Z,95936.66
2022-09-06T11:18:27.863Z,95937.78
2022-09-06T11:21:20.154Z,95943.13
2022-09-06T11:24:15.828Z,95943.38
2022-09-06T11:26:44.114Z,95949.44
2022-09-06T11:29:19.955Z,95943.97
2022-09-06T11:34:54.809Z,95955.75
2022-09-06T11:37:32.861Z,95950.72
2022-09-06T11:40:28.626Z,95952.66
2022-09-06T11:42:55.687Z,95952.66
2022-09-06T11:45:53.410Z,95948.44
2022-09-06T11:48:35.167Z,95956.28
2022-09-06T11:51:03.706Z,95948.13
2022-09-06T11:53:48.473Z,95941.13
2022-09-06T11:56:41.813Z,95947.31
2022-09-06T11:59:30.069Z,95942.53
2022-09-06T12:02:19.905Z,95939.38
2022-09-06T12:05:00.436Z,95942.88
2022-09-06T12:07:29.505Z,95935.19
2022-09-06T12:09:56.226Z,95936.25
2022-09-06T12:12:41.763Z,95935.41
2022-09-06T12:15:30.004Z,95931.31
2022-09-06T12:17:58.494Z,95923.13
2022-09-06T12:20:53.162Z,95926.16
2022-09-06T12:23:34.984Z,95917.16
2022-09-06T12:26:06.442Z,95930.88
2022-09-06T12:28:47.395Z,95926.56
2022-09-06T12:31:29.730Z,95919.50
2022-09-06T12:33:57.601Z,95910.34
2022-09-06T12:36:31.773Z,95909.88
2022-09-06T12:38:59.766Z,95905.16
2022-09-06T12:41:29.192Z,95908.13
2022-09-06T12:43:58.469Z,95900.44
2022-09-06T12:46:26.866Z,95911.50
2022-09-06T12:49:00.889Z,95907.84
2022-09-06T12:51:27.984Z,95900.81
2022-09-06T12:53:58.487Z,95892.34
2022-09-06T12:56:26.877Z,95893.88
2022-09-06T12:59:09.640Z,95897.44
2022-09-06T13:01:37.513Z,95889.09
2022-09-06T13:04:26.406Z,95895.63
2022-09-06T13:06:54.056Z,95885.41
2022-09-06T13:09:22.901Z,95883.88
2022-09-06T13:11:52.245Z,95880.53
2022-09-06T13:14:26.806Z,95876.25
2022-09-06T13:16:59.851Z,95876.78
2022-09-06T13:19:36.063Z,95873.53
2022-09-06T13:22:07.401Z,95879.75
2022-09-06T13:24:36.855Z,95873.03
2022-09-06T13:27:45.862Z,95883.03
2022-09-06T13:30:30.054Z,95875.25
2022-09-06T13:32:56.743Z,95871.09
2022-09-06T13:35:29.315Z,95878.09
2022-09-06T13:38:22.115Z,95878.44
2022-09-06T13:41:11.547Z,95877.53
2022-09-06T13:43:44.933Z,95876.06
2022-09-06T13:46:11.999Z,95868.69
2022-09-06T13:48:44.689Z,95862.22
2022-09-06T13:51:11.538Z,95856.38
2022-09-06T13:53:38.191Z,95858.97
2022-09-06T13:56:08.581Z,95858.00
2022-09-06T13:58:36.360Z,95845.94
2022-09-06T14:01:04.931Z,95843.47
2022-09-06T14:03:32.480Z,95840.69
2022-09-06T14:06:00.320Z,95843.75
2022-09-06T14:08:38.807Z,95850.97
2022-09-06T14:11:14.865Z,95847.59
2022-09-06T14:13:41.822Z,95838.63
2022-09-06T14:16:08.567Z,95846.78
2022-09-06T14:18:36.238Z,95848.47
2022-09-06T14:21:03.283Z,95844.19
2022-09-06T14:23:29.905Z,95846.38
2022-09-06T14:25:57.558Z,95835.94
2022-09-06T14:28:25.343Z,95837.59
2022-09-06T14:30:52.348Z,95840.69
2022-09-06T14:33:20.010Z,95839.72
2022-09-06T14:35:47.607Z,95846.94
2022-09-06T14:38:14.728Z,95857.88
2022-09-06T14:40:45.593Z,95850.59
2022-09-06T14:43:12.145Z,95859.75
2022-09-06T14:45:38.837Z,95858.22
2022-09-06T14:48:05.720Z,95856.91
2022-09-06T14:50:32.459Z,95853.75
2022-09-06T14:52:59.182Z,95852.78
2022-09-06T14:55:28.092Z,95849.41
2022-09-06T14:57:54.990Z,95859.66
2022-09-06T15:00:22.692Z,95856.31
2022-09-06T15:02:49.385Z,95848.69
2022-09-06T15:05:16.202Z,95843.28
2022-09-06T15:07:43.250Z,95838.59
2022-09-06T15:10:10.871Z,95835.09
2022-09-06T15:12:38.128Z,95838.81
2022-09-06T15:15:05.626Z,95833.56
2022-09-06T15:17:34.260Z,95834.31
2022-09-06T15:20:01.174Z,95834.03
2022-09-06T15:22:27.986Z,95827.69
2022-09-06T15:24:54.679Z,95827.03
2022-09-06T15:27:21.601Z,95823.03
2022-09-06T15:29:48.204Z,95820.22
2022-09-06T15:32:14.817Z,95813.31
2022-09-06T15:34:41.503Z,95809.25
2022-09-06T15:37:08.211Z,95802.75
2022-09-06T15:39:35.029Z,95810.44
2022-09-06T15:42:01.776Z,95806.22
2022-09-06T15:44:28.518Z,95808.97
2022-09-06T15:46:58.104Z,95804.84
2022-09-06T15:49:31.209Z,95799.47
2022-09-06T15:52:00.920Z,95801.94
2022-09-06T15:54:47.060Z,95797.72
2022-09-06T15:57:18.195Z,95795.00
2022-09-06T15:59:45.759Z,95801.91
2022-09-06T16:02:12.764Z,95800.41
2022-09-06T16:04:39.543Z,95801.59
2022-09-06T16:07:07.167Z,95801.94
2022-09-06T16:09:33.786Z,95796.41
2022-09-06T16:12:00.404Z,95787.13
2022-09-06T16:14:28.334Z,95788.97
2022-09-06T16:16:55.140Z,95780.22
2022-09-06T16:19:21.831Z,95782.25
2022-09-06T16:21:49.204Z,95793.78
2022-09-06T16:24:18.244Z,95788.47
2022-09-06T16:26:48.891Z,95783.09
2022-09-06T16:29:18.124Z,95786.53
2022-09-06T16:31:46.708Z,95778.25
2022-09-06T16:34:14.118Z,95773.00
2022-09-06T16:36:41.094Z,95768.69
2022-09-06T16:39:08.985Z,95772.22
2022-09-06T16:41:43.577Z,95766.06
2022-09-06T16:44:16.462Z,95764.06
2022-09-06T16:46:48.457Z,95751.47
2022-09-06T16:49:17.391Z,95752.47
2022-09-06T16:51:44.833Z,95754.16
2022-09-06T16:54:11.524Z,95751.91
2022-09-06T16:56:38.961Z,95748.53
2022-09-06T16:59:07.491Z,95748.38
2022-09-06T17:01:36.392Z,95740.22
2022-09-06T17:04:04.486Z,95730.09
2022-09-06T17:06:32.517Z,95720.06
2022-09-06T17:08:59.481Z,95713.00
2022-09-06T17:11:27.753Z,95708.03
2022-09-06T17:13:55.419Z,95700.53
2022-09-06T17:16:41.288Z,95707.84
2022-09-06T17:19:08.787Z,95710.00
2022-09-06T17:21:36.141Z,95708.94
2022-09-06T17:24:04.749Z,95703.28
2022-09-06T17:26:33.814Z,95705.78
2022-09-06T17:29:00.508Z,95703.84
2022-09-06T17:31:28.120Z,95702.19
2022-09-06T17:33:54.895Z,95702.69
2022-09-06T17:36:25.101Z,95703.00
2022-09-06T17:38:54.123Z,95705.59
2022-09-06T17:41:24.284Z,95703.34
2022-09-06T17:43:52.881Z,95706.44
2022-09-06T17:46:20.245Z,95713.00
2022-09-06T17:48:46.976Z,95720.19
2022-09-06T17:51:13.617Z,95720.56
2022-09-06T17:53:43.880Z,95717.56
2022-09-06T17:56:12.398Z,95727.72
2022-09-06T17:58:40.465Z,95721.13
2022-09-06T18:01:10.454Z,95730.13
2022-09-06T18:03:39.714Z,95730.34
2022-09-06T18:06:09.240Z,95728.28
2022-09-06T18:08:37.782Z,95729.84
2022-09-06T18:11:09.359Z,95730.25
2022-09-06T18:13:36.593Z,95725.28
2022-09-06T18:16:04.369Z,95719.44
2022-09-06T18:18:31.699Z,95710.00
2022-09-06T18:20:58.383Z,95707.59
2022-09-06T18:23:28.578Z,95710.16
2022-09-06T18:25:57.292Z,95713.78
2022-09-06T18:28:24.387Z,95711.56
2022-09-06T18:30:53.651Z,95713.97
2022-09-06T18:33:23.708Z,95712.38
2022-09-06T18:35:51.738Z,95705.88
2022-09-06T18:38:18.656Z,95711.75
2022-09-06T18:40:56.689Z,95713.41
2022-09-06T18:43:27.015Z,95716.69
2022-09-06T18:46:00.937Z,95724.69
2022-09-06T18:48:28.910Z,95726.94
2022-09-06T18:50:59.853Z,95738.81
2022-09-06T18:53:26.646Z,95744.03
2022-09-06T18:55:53.736Z,95737.44
2022-09-06T18:58:20.339Z,95750.72
2022-09-06T19:00:47.489Z,95742.63
2022-09-06T19:03:14.459Z,95747.78
2022-09-06T19:05:41.102Z,95743.91
2022-09-06T19:08:08.093Z,95741.47
2022-09-06T19:10:34.704Z,95753.38
2022-09-06T19:13:01.384Z,95747.41
2022-09-06T19:15:28.367Z,95750.88
2022-09-06T19:17:55.113Z,95744.31
2022-09-06T19:20:21.775Z,95740.13
2022-09-06T19:22:51.147Z,95745.09
2022-09-06T19:25:19.025Z,95744.91
2022-09-06T19:27:48.669Z,95748.56
2022-09-06T19:30:15.660Z,95750.25
2022-09-06T19:32:42.325Z,95761.84
2022-09-06T19:35:09.301Z,95743.75
2022-09-06T19:37:35.911Z,95751.13
2022-09-06T19:40:02.814Z,95751.50
2022-09-06T19:42:29.554Z,95751.44
2022-09-06T19:44:56.223Z,95758.38
2022-09-06T19:47:22.840Z,95751.06
2022-09-06T19:49:49.442Z,95742.63
2022-09-06T19:52:16.043Z,95737.53
2022-09-06T19:54:43.314Z,95733.03
2022-09-06T19:57:10.191Z,95737.81
2022-09-06T19:59:36.955Z,95738.59
2022-09-06T20:02:03.757Z,95732.41
2022-09-06T20:04:30.529Z,95731.03
2022-09-06T20:06:58.441Z,95730.72
2022-09-06T20:09:25.196Z,95726.81
2022-09-06T20:11:52.038Z,95731.69
2022-09-06T20:14:19.020Z,95736.19
2022-09-06T20:16:45.796Z,95742.78
2022-09-06T20:19:14.545Z,95744.13
2022-09-06T20:21:41.371Z,95730.50
2022-09-06T20:24:08.070Z,95733.31
2022-09-06T20:26:34.687Z,95733.88
2022-09-06T20:29:03.364Z,95735.16
2022-09-06T20:31:31.832Z,95733.03
2022-09-06T20:34:00.193Z,95733.88
2022-09-06T20:36:27.017Z,95733.72
2022-09-06T20:38:54.176Z,95737.44
2022-09-06T20:41:23.727Z,95732.88
2022-09-06T20:43:52.510Z,95727.41
2022-09-06T20:46:21.198Z,95721.56
2022-09-06T20:48:48.071Z,95717.94
2022-09-06T20:51:20.115Z,95718.34
2022-09-06T20:53:48.775Z,95727.72
2022-09-06T20:56:18.563Z,95730.50
2022-09-06T20:58:53.976Z,95732.03
2022-09-06T21:01:23.303Z,95736.34
2022-09-06T21:03:55.062Z,95734.31
2022-09-06T21:06:22.832Z,95729.59
2022-09-06T21:08:50.362Z,95732.69
2022-09-06T21:11:18.082Z,95728.38
2022-09-06T21:13:49.888Z,95736.56
2022-09-06T21:16:21.815Z,95739.16
2022-09-06T21:18:56.823Z,95730.53
2022-09-06T21:21:25.360Z,95727.22
2022-09-06T21:23:52.673Z,95731.75
2022-09-06T21:26:22.600Z,95728.28
2022-09-06T21:28:50.318Z,95728.97
2022-09-06T21:31:23.222Z,95724.59
2022-09-06T21:33:55.763Z,95729.66
2022-09-06T21:36:30.275Z,95730.22
2022-09-06T21:39:00.740Z,95725.66
2022-09-06T21:41:28.949Z,95732.09
2022-09-06T21:43:58.343Z,95735.91
2022-09-06T21:46:32.374Z,95723.53
2022-09-06T21:49:03.688Z,95733.72
2022-09-06T21:51:31.100Z,95731.88
2022-09-06T21:53:58.066Z,95731.78
2022-09-06T21:56:25.347Z,95733.97
2022-09-06T21:58:55.370Z,95730.47
2022-09-06T22:01:27.820Z,95741.31
2022-09-06T22:03:54.602Z,95744.63
2022-09-06T22:06:24.769Z,95740.53
2022-09-06T22:08:52.146Z,95736.47
2022-09-06T22:11:30.376Z,95745.13
2022-09-06T22:14:02.844Z,95742.38
2022-09-06T22:16:31.146Z,95735.66
2022-09-06T22:18:58.280Z,95736.63
2022-09-06T22:21:25.278Z,95730.28
2022-09-06T22:23:54.488Z,95721.06
2022-09-06T22:26:21.957Z,95723.41
2022-09-06T22:28:53.562Z,95717.84
2022-09-06T22:31:20.477Z,95733.16
2022-09-06T22:33:47.661Z,95728.34
2022-09-06T22:36:14.373Z,95727.47
2022-09-06T22:38:41.051Z,95720.88
2022-09-06T22:41:08.115Z,95735.09
2022-09-06T22:43:35.193Z,95741.00
2022-09-06T22:46:04.597Z,95734.81
2022-09-06T22:48:32.236Z,95738.63
2022-09-06T22:51:00.619Z,95737.44
2022-09-06T22:53:28.514Z,95739.00
2022-09-06T22:55:55.830Z,95743.88
2022-09-06T22:58:29.326Z,95752.84
2022-09-06T23:00:56.995Z,95751.44
2022-09-06T23:03:23.814Z,95751.13
2022-09-06T23:05:50.498Z,95749.66
2022-09-06T23:08:17.113Z,95740.63
2022-09-06T23:10:44.359Z,95739.91
2022-09-06T23:13:11.533Z,95733.66
2022-09-06T23:15:41.016Z,95732.53
2022-09-06T23:18:08.387Z,95723.72
2022-09-06T23:20:37.109Z,95720.50
2022-09-06T23:23:07.822Z,95718.94
2022-09-06T23:25:38.885Z,95715.75
2022-09-06T23:28:06.118Z,95717.94
2022-09-06T23:30:35.919Z,95715.41
2022-09-06T23:33:02.953Z,95710.22
2022-09-06T23:35:29.985Z,95714.56
2022-09-06T23:37:57.605Z,95709.72
2022-09-06T23:40:24.461Z,95694.75
2022-09-06T23:42:51.522Z,95676.09
2022-09-06T23:45:19.364Z,95680.56
2022-09-06T23:47:47.516Z,95675.72
2022-09-06T23:50:15.519Z,95669.97
2022-09-06T23:52:48.100Z,95678.84
2022-09-06T23:55:15.231Z,95674.66
2022-09-06T23:57:42.083Z,95664.41
